createdAt,value
2018-05-06T00:00:38.350Z,16.95
2018-05-06T00:03:06.770Z,16.93
2018-05-06T00:05:35.224Z,16.97
2018-05-06T00:08:03.321Z,16.94
2018-05-06T00:10:31.441Z,16.83
2018-05-06T00:12:59.556Z,16.87
2018-05-06T00:15:28.027Z,16.93
2018-05-06T00:17:56.119Z,16.92
2018-05-06T00:20:24.499Z,16.97
2018-05-06T00:22:52.612Z,16.84
2018-05-06T00:25:20.692Z,16.82
2018-05-06T00:27:48.783Z,16.84
2018-05-06T00:30:16.948Z,16.74
2018-05-06T00:32:45.391Z,16.75
2018-05-06T00:35:13.486Z,16.64
2018-05-06T00:37:41.589Z,16.61
2018-05-06T00:40:09.770Z,16.51
2018-05-06T00:42:37.874Z,16.51
2018-05-06T00:58:05.994Z,16.53
2018-05-06T01:00:34.087Z,16.52
2018-05-06T01:03:02.184Z,16.50
2018-05-06T01:05:30.294Z,16.45
2018-05-06T01:07:58.428Z,16.45
2018-05-06T01:10:26.509Z,16.48
2018-05-06T01:12:54.631Z,16.44
2018-05-06T01:15:22.723Z,16.42
2018-05-06T01:17:50.867Z,16.37
2018-05-06T01:20:19.011Z,16.52
2018-05-06T01:22:53.442Z,16.56
2018-05-06T01:25:27.275Z,16.61
2018-05-06T01:27:55.366Z,16.58
2018-05-06T01:30:23.455Z,16.58
2018-05-06T01:32:51.598Z,16.38
2018-05-06T01:35:19.696Z,16.34
2018-05-06T01:37:47.813Z,16.27
2018-05-06T01:40:15.940Z,16.24
2018-05-06T01:42:49.443Z,16.24
2018-05-06T01:45:17.573Z,16.21
2018-05-06T01:47:45.671Z,16.13
2018-05-06T01:50:13.816Z,16.06
2018-05-06T01:52:42.182Z,16.09
2018-05-06T01:55:10.487Z,15.97
2018-05-06T01:57:38.558Z,15.94
2018-05-06T02:00:06.659Z,15.88
2018-05-06T02:02:34.749Z,15.82
2018-05-06T02:05:05.643Z,15.76
2018-05-06T02:07:33.749Z,15.70
2018-05-06T02:10:01.820Z,15.66
2018-05-06T02:12:29.951Z,15.65
2018-05-06T02:14:58.015Z,15.58
2018-05-06T02:17:26.105Z,15.53
2018-05-06T02:19:54.195Z,15.62
2018-05-06T02:22:22.331Z,15.52
2018-05-06T02:24:50.372Z,15.50
2018-05-06T02:27:18.487Z,15.51
2018-05-06T02:29:47.184Z,15.52
2018-05-06T02:32:15.288Z,15.49
2018-05-06T02:34:43.420Z,15.44
2018-05-06T02:37:11.503Z,15.32
2018-05-06T02:39:39.591Z,15.27
2018-05-06T02:42:07.695Z,15.20
2018-05-06T02:44:35.779Z,15.23
2018-05-06T02:47:03.931Z,15.19
2018-05-06T02:49:31.979Z,15.19
2018-05-06T02:52:00.075Z,15.10
2018-05-06T02:54:28.171Z,15.09
2018-05-06T02:56:56.263Z,15.07
2018-05-06T02:59:24.381Z,15.06
2018-05-06T03:01:52.464Z,15.03
2018-05-06T03:04:20.566Z,15.08
2018-05-06T03:06:48.740Z,15.00
2018-05-06T03:09:17.556Z,14.87
2018-05-06T03:11:45.664Z,14.92
2018-05-06T03:14:13.747Z,14.86
2018-05-06T03:16:41.879Z,14.81
2018-05-06T03:19:09.996Z,14.74
2018-05-06T03:21:38.256Z,14.66
2018-05-06T03:24:06.336Z,14.65
2018-05-06T03:26:34.421Z,14.63
2018-05-06T03:29:02.522Z,14.58
2018-05-06T03:31:30.631Z,14.54
2018-05-06T03:33:58.747Z,14.48
2018-05-06T03:36:26.845Z,14.50
2018-05-06T03:38:54.953Z,14.42
2018-05-06T03:41:28.520Z,14.39
2018-05-06T03:44:02.250Z,14.39
2018-05-06T03:46:30.343Z,14.41
2018-05-06T03:48:58.441Z,14.38
2018-05-06T03:51:26.564Z,14.48
2018-05-06T03:53:54.705Z,14.41
2018-05-06T03:59:48.545Z,14.30
2018-05-06T04:02:31.581Z,14.29
2018-05-06T04:04:59.672Z,14.26
2018-05-06T04:07:27.760Z,14.27
2018-05-06T04:09:55.901Z,14.15
2018-05-06T04:12:24.021Z,14.22
2018-05-06T04:14:53.027Z,14.23
2018-05-06T04:17:21.117Z,14.17
2018-05-06T04:19:49.305Z,14.16
2018-05-06T04:22:17.389Z,14.24
2018-05-06T04:24:45.491Z,14.25
2018-05-06T04:27:13.601Z,14.17
2018-05-06T04:29:41.703Z,14.20
2018-05-06T04:32:09.837Z,14.15
2018-05-06T04:34:37.922Z,14.15
2018-05-06T04:37:06.019Z,14.20
2018-05-06T04:39:34.167Z,14.33
2018-05-06T04:42:02.249Z,14.38
2018-05-06T04:44:30.336Z,14.39
2018-05-06T04:46:58.456Z,14.38
2018-05-06T04:49:31.975Z,14.44
2018-05-06T04:52:00.092Z,14.26
2018-05-06T04:54:28.485Z,14.11
2018-05-06T04:56:56.592Z,14.16
2018-05-06T04:59:25.180Z,14.15
2018-05-06T05:01:53.271Z,14.14
2018-05-06T05:04:21.378Z,14.12
2018-05-06T05:06:49.496Z,14.02
2018-05-06T05:09:17.571Z,14.01
2018-05-06T05:11:45.873Z,14.11
2018-05-06T05:14:13.987Z,14.14
2018-05-06T05:16:42.142Z,14.15
2018-05-06T05:19:10.182Z,14.15
2018-05-06T05:21:43.899Z,14.14
2018-05-06T05:24:17.730Z,14.16
2018-05-06T05:26:45.822Z,14.17
2018-05-06T05:29:13.912Z,14.26
2018-05-06T05:31:42.002Z,14.33
2018-05-06T05:34:10.130Z,14.45
2018-05-06T05:36:38.260Z,14.43
2018-05-06T05:39:06.843Z,14.44
2018-05-06T05:41:35.832Z,14.42
2018-05-06T05:44:03.952Z,14.36
2018-05-06T05:46:32.047Z,14.38
2018-05-06T05:49:00.147Z,14.45
2018-05-06T05:51:28.274Z,14.53
2018-05-06T05:53:56.361Z,14.61
2018-05-06T05:56:24.480Z,14.72
2018-05-06T05:58:52.570Z,14.88
2018-05-06T06:01:20.679Z,14.87
2018-05-06T06:03:48.746Z,14.91
2018-05-06T06:06:16.865Z,15.04
2018-05-06T06:08:45.230Z,15.10
2018-05-06T06:11:14.136Z,15.14
2018-05-06T06:13:48.761Z,15.15
2018-05-06T06:16:16.844Z,15.15
2018-05-06T06:18:44.931Z,15.24
2018-05-06T06:21:13.048Z,15.28
2018-05-06T06:23:41.146Z,15.33
2018-05-06T06:26:09.268Z,15.40
2018-05-06T06:28:37.366Z,15.43
2018-05-06T06:31:05.458Z,15.47
2018-05-06T06:33:33.531Z,15.48
2018-05-06T06:36:01.967Z,15.56
2018-05-06T06:38:30.110Z,15.53
2018-05-06T06:40:58.243Z,15.54
2018-05-06T06:43:26.327Z,15.62
2018-05-06T06:45:54.420Z,15.71
2018-05-06T06:48:22.535Z,15.75
2018-05-06T06:50:50.661Z,15.87
2018-05-06T06:53:18.810Z,16.12
2018-05-06T07:08:51.951Z,17.81
2018-05-06T07:11:20.085Z,17.72
2018-05-06T07:13:48.168Z,17.84
2018-05-06T07:16:16.702Z,18.38
2018-05-06T07:18:44.771Z,18.64
2018-05-06T07:21:12.865Z,18.62
2018-05-06T07:23:42.451Z,18.86
2018-05-06T07:26:10.551Z,19.01
2018-05-06T07:28:38.874Z,19.10
2018-05-06T07:31:07.016Z,19.06
2018-05-06T07:33:35.102Z,18.96
2018-05-06T07:36:03.186Z,19.13
2018-05-06T07:38:31.295Z,19.25
2018-05-06T07:40:59.397Z,19.76
2018-05-06T07:43:27.474Z,19.86
2018-05-06T07:45:55.588Z,19.44
2018-05-06T07:48:23.665Z,19.63
2018-05-06T07:50:52.116Z,19.71
2018-05-06T07:53:20.690Z,19.82
2018-05-06T07:55:48.807Z,19.81
2018-05-06T07:58:16.871Z,20.12
2018-05-06T08:00:45.145Z,20.15
2018-05-06T08:03:18.651Z,20.10
2018-05-06T08:15:31.746Z,19.85
2018-05-06T08:17:59.837Z,19.81
2018-05-06T08:20:27.966Z,19.89
2018-05-06T08:22:56.040Z,19.69
2018-05-06T08:25:24.134Z,19.85
2018-05-06T08:27:52.220Z,19.99
2018-05-06T08:30:20.309Z,20.09
2018-05-06T08:32:48.446Z,20.06
2018-05-06T08:35:17.234Z,19.74
2018-05-06T08:37:45.329Z,19.75
2018-05-06T08:40:13.427Z,19.84
2018-05-06T08:42:47.207Z,19.98
2018-05-06T08:45:20.908Z,20.03
2018-05-06T08:47:49.020Z,19.82
2018-05-06T08:50:22.590Z,19.69
2018-05-06T08:52:51.838Z,19.84
2018-05-06T08:55:19.918Z,20.14
2018-05-06T08:57:48.005Z,20.13
2018-05-06T09:00:16.155Z,20.20
2018-05-06T09:02:44.235Z,20.28
2018-05-06T09:05:13.232Z,20.06
2018-05-06T09:07:41.375Z,20.09
2018-05-06T09:10:10.462Z,20.02
2018-05-06T09:12:38.565Z,20.07
2018-05-06T09:15:06.691Z,19.92
2018-05-06T09:17:34.766Z,19.81
2018-05-06T09:20:02.918Z,19.87
2018-05-06T09:22:30.991Z,19.92
2018-05-06T09:24:59.079Z,19.86
2018-05-06T09:27:27.183Z,19.82
2018-05-06T09:29:55.261Z,19.88
2018-05-06T09:32:23.475Z,19.88
2018-05-06T09:34:51.581Z,20.07
2018-05-06T09:37:19.649Z,20.11
2018-05-06T09:39:47.755Z,20.15
2018-05-06T09:42:16.087Z,20.19
2018-05-06T09:44:44.204Z,20.25
2018-05-06T09:47:13.319Z,20.32
2018-05-06T09:49:41.399Z,20.34
2018-05-06T09:52:10.417Z,20.51
2018-05-06T09:54:38.560Z,20.51
2018-05-06T09:57:06.657Z,20.45
2018-05-06T09:59:34.774Z,20.30
2018-05-06T10:02:02.879Z,20.39
2018-05-06T10:04:30.982Z,20.49
2018-05-06T10:06:59.059Z,20.57
2018-05-06T10:09:27.180Z,20.57
2018-05-06T10:11:55.259Z,20.57
2018-05-06T10:14:23.472Z,20.61
2018-05-06T10:16:51.559Z,20.60
2018-05-06T10:19:19.891Z,20.64
2018-05-06T10:21:48.043Z,20.74
2018-05-06T10:24:16.147Z,20.77
2018-05-06T10:26:44.239Z,20.89
2018-05-06T10:29:12.336Z,20.82
2018-05-06T10:31:40.452Z,20.92
2018-05-06T10:34:08.627Z,20.89
2018-05-06T10:36:36.698Z,20.99
2018-05-06T10:39:06.688Z,21.19
2018-05-06T10:41:34.796Z,21.17
2018-05-06T10:44:02.940Z,21.23
2018-05-06T10:46:30.989Z,21.15
2018-05-06T10:48:59.133Z,21.25
2018-05-06T10:51:27.157Z,21.17
2018-05-06T10:53:55.276Z,21.18
2018-05-06T10:56:23.357Z,21.27
2018-05-06T10:58:51.446Z,21.51
2018-05-06T11:01:26.737Z,21.49
2018-05-06T11:04:00.422Z,21.49
2018-05-06T11:06:28.513Z,21.50
2018-05-06T11:08:56.591Z,21.42
2018-05-06T11:11:25.317Z,21.43
2018-05-06T11:13:53.427Z,21.56
2018-05-06T11:16:21.515Z,21.65
2018-05-06T11:18:49.637Z,21.57
2018-05-06T11:21:17.734Z,21.64
2018-05-06T11:23:46.849Z,21.71
2018-05-06T11:26:15.018Z,21.70
2018-05-06T11:28:43.037Z,21.73
2018-05-06T11:31:11.149Z,21.85
2018-05-06T11:33:40.213Z,21.77
2018-05-06T11:36:09.171Z,21.89
2018-05-06T11:38:37.272Z,21.99
2018-05-06T11:41:05.446Z,21.95
2018-05-06T11:43:38.894Z,21.94
2018-05-06T11:46:12.576Z,22.12
2018-05-06T11:48:46.136Z,22.10
2018-05-06T11:51:15.125Z,22.10
2018-05-06T11:53:43.225Z,22.24
2018-05-06T11:56:11.349Z,22.37
2018-05-06T11:58:39.407Z,22.38
2018-05-06T12:01:07.498Z,22.40
2018-05-06T12:03:35.594Z,22.32
2018-05-06T12:06:09.460Z,22.40
2018-05-06T12:08:43.159Z,22.66
2018-05-06T12:11:11.235Z,22.62
2018-05-06T12:13:39.334Z,22.50
2018-05-06T12:16:07.411Z,22.61
2018-05-06T12:18:35.532Z,22.65
2018-05-06T12:21:03.646Z,22.74
2018-05-06T12:23:37.235Z,22.86
2018-05-06T12:26:05.647Z,22.74
2018-05-06T12:28:33.776Z,22.70
2018-05-06T12:31:01.923Z,22.77
2018-05-06T12:33:36.517Z,22.91
2018-05-06T12:36:04.611Z,22.93
2018-05-06T12:38:33.687Z,22.95
2018-05-06T12:41:01.797Z,23.08
2018-05-06T12:43:30.676Z,22.97
2018-05-06T12:45:58.531Z,23.02
2018-05-06T12:48:26.631Z,23.08
2018-05-06T12:50:54.721Z,23.02
2018-05-06T12:53:22.803Z,23.04
2018-05-06T12:55:50.899Z,23.00
2018-05-06T12:58:19.019Z,23.09
2018-05-06T13:00:47.129Z,23.21
2018-05-06T13:03:21.015Z,23.32
2018-05-06T13:05:49.119Z,23.15
2018-05-06T13:08:17.246Z,23.05
2018-05-06T13:10:45.368Z,23.15
2018-05-06T13:13:13.574Z,23.32
2018-05-06T13:15:41.595Z,23.47
2018-05-06T13:18:09.691Z,23.67
2018-05-06T13:20:37.773Z,23.47
2018-05-06T13:23:05.897Z,23.47
2018-05-06T13:25:34.060Z,23.61
2018-05-06T13:28:02.775Z,23.75
2018-05-06T13:30:30.887Z,23.82
2018-05-06T13:32:58.979Z,23.80
2018-05-06T13:35:27.130Z,23.74
2018-05-06T13:37:55.331Z,23.69
2018-05-06T13:40:23.439Z,23.70
2018-05-06T13:42:55.491Z,23.83
2018-05-06T13:45:23.617Z,23.88
2018-05-06T13:47:51.723Z,23.87
2018-05-06T13:50:19.831Z,23.95
2018-05-06T13:52:48.056Z,23.97
2018-05-06T13:55:16.193Z,24.00
2018-05-06T13:57:44.321Z,23.98
2018-05-06T14:00:12.452Z,24.05
2018-05-06T14:15:40.562Z,23.76
2018-05-06T14:18:13.663Z,23.70
2018-05-06T14:20:41.787Z,23.78
2018-05-06T14:23:09.933Z,23.86
2018-05-06T14:25:38.043Z,23.82
2018-05-06T14:28:06.146Z,23.77
2018-05-06T14:30:34.496Z,23.80
2018-05-06T14:33:02.599Z,23.81
2018-05-06T14:35:31.495Z,23.84
2018-05-06T14:37:59.601Z,23.88
2018-05-06T14:40:28.367Z,23.92
2018-05-06T14:42:56.477Z,23.94
2018-05-06T14:45:24.686Z,23.94
2018-05-06T14:48:04.486Z,23.95
2018-05-06T14:50:32.575Z,24.07
2018-05-06T14:53:00.676Z,24.03
2018-05-06T14:55:29.531Z,24.11
2018-05-06T14:57:57.626Z,24.03
2018-05-06T15:00:25.711Z,24.01
2018-05-06T15:02:53.815Z,24.05
2018-05-06T15:05:21.927Z,24.14
2018-05-06T15:07:50.066Z,24.17
2018-05-06T15:10:18.207Z,24.27
2018-05-06T15:12:46.260Z,24.27
2018-05-06T15:15:14.532Z,24.28
2018-05-06T15:17:42.597Z,24.27
2018-05-06T15:20:10.703Z,24.35
2018-05-06T15:22:39.582Z,24.26
2018-05-06T15:25:07.731Z,24.34
2018-05-06T15:27:35.837Z,24.37
2018-05-06T15:30:03.981Z,24.33
2018-05-06T15:32:32.056Z,24.39
2018-05-06T15:35:00.175Z,24.48
2018-05-06T15:37:28.295Z,24.42
2018-05-06T15:52:56.412Z,24.43
2018-05-06T15:55:25.221Z,24.49
2018-05-06T15:57:53.319Z,24.52
2018-05-06T16:00:21.432Z,24.53
2018-05-06T16:03:01.366Z,24.57
2018-05-06T16:05:29.510Z,24.52
2018-05-06T16:07:57.601Z,24.53
2018-05-06T16:10:25.722Z,24.59
2018-05-06T16:12:53.835Z,24.57
2018-05-06T16:15:22.759Z,24.58
2018-05-06T16:17:52.558Z,24.60
2018-05-06T16:20:20.671Z,24.57
2018-05-06T16:22:48.822Z,24.55
2018-05-06T16:25:17.233Z,24.59
2018-05-06T16:27:45.319Z,24.59
2018-05-06T16:30:13.459Z,24.55
2018-05-06T16:32:47.078Z,24.52
2018-05-06T16:35:15.185Z,24.56
2018-05-06T16:37:43.308Z,24.56
2018-05-06T16:40:11.422Z,24.53
2018-05-06T16:42:39.845Z,24.56
2018-05-06T16:45:07.980Z,24.55
2018-05-06T16:47:36.083Z,24.53
2018-05-06T16:50:04.236Z,24.66
2018-05-06T16:52:32.305Z,24.62
2018-05-06T16:55:01.156Z,24.58
2018-05-06T16:57:29.270Z,24.60
2018-05-06T16:59:57.362Z,24.59
2018-05-06T17:02:25.459Z,24.55
2018-05-06T17:04:53.570Z,24.57
2018-05-06T17:07:21.772Z,24.59
2018-05-06T17:09:49.864Z,24.65
2018-05-06T17:12:17.968Z,24.61
2018-05-06T17:14:46.076Z,24.59
2018-05-06T17:17:14.354Z,24.63
2018-05-06T17:19:42.559Z,24.56
2018-05-06T17:22:10.585Z,24.62
2018-05-06T17:24:38.675Z,24.59
2018-05-06T17:27:06.759Z,24.59
2018-05-06T17:29:34.853Z,24.59
2018-05-06T17:32:02.973Z,24.60
2018-05-06T17:34:36.741Z,24.59
2018-05-06T17:37:04.804Z,24.56
2018-05-06T17:39:33.180Z,24.57
2018-05-06T17:42:01.274Z,24.51
2018-05-06T17:44:29.376Z,24.53
2018-05-06T17:46:57.487Z,24.56
2018-05-06T17:49:25.599Z,24.53
2018-05-06T17:51:54.696Z,24.47
2018-05-06T17:54:23.688Z,24.49
2018-05-06T17:56:51.783Z,24.49
2018-05-06T17:59:20.259Z,24.46
2018-05-06T18:01:48.703Z,24.45
2018-05-06T18:04:16.822Z,24.49
2018-05-06T18:06:45.012Z,24.48
2018-05-06T18:09:13.071Z,24.44
2018-05-06T18:11:41.163Z,24.44
2018-05-06T18:14:14.854Z,24.41
2018-05-06T18:16:42.969Z,24.36
2018-05-06T18:19:11.067Z,24.34
2018-05-06T18:21:39.195Z,24.30
2018-05-06T18:24:07.941Z,24.29
2018-05-06T18:26:36.056Z,24.26
2018-05-06T18:29:05.945Z,24.22
2018-05-06T18:31:34.053Z,24.19
2018-05-06T18:34:02.948Z,24.17
2018-05-06T18:36:31.360Z,24.12
2018-05-06T18:38:59.460Z,24.08
2018-05-06T18:41:27.567Z,24.07
2018-05-06T18:43:55.656Z,24.03
2018-05-06T18:46:24.663Z,23.99
2018-05-06T18:48:52.760Z,23.96
2018-05-06T18:51:20.865Z,23.95
2018-05-06T18:53:49.250Z,23.92
2018-05-06T18:56:17.339Z,23.89
2018-05-06T18:58:45.462Z,23.86
2018-05-06T19:01:13.583Z,23.83
2018-05-06T19:03:41.688Z,23.81
2018-05-06T19:06:09.805Z,23.78
2018-05-06T19:08:37.893Z,23.76
2018-05-06T19:11:06.006Z,23.73
2018-05-06T19:13:34.084Z,23.66
2018-05-06T19:29:02.186Z,23.39
2018-05-06T19:31:30.286Z,23.38
2018-05-06T19:33:58.394Z,23.38
2018-05-06T19:36:26.488Z,23.36
2018-05-06T19:38:54.596Z,23.31
2018-05-06T19:41:23.642Z,23.32
2018-05-06T19:43:51.797Z,23.26
2018-05-06T19:46:20.580Z,23.22
2018-05-06T19:48:49.151Z,23.19
2018-05-06T19:51:17.522Z,23.17
2018-05-06T19:53:51.136Z,23.14
2018-05-06T19:56:19.274Z,23.09
2018-05-06T19:58:47.469Z,23.06
2018-05-06T20:01:15.554Z,23.02
2018-05-06T20:03:44.591Z,22.97
2018-05-06T20:06:13.201Z,22.95
2018-05-06T20:08:41.317Z,22.90
2018-05-06T20:11:10.027Z,22.89
2018-05-06T20:13:38.136Z,22.83
2018-05-06T20:16:06.247Z,22.82
2018-05-06T20:18:34.340Z,22.81
2018-05-06T20:21:03.389Z,22.77
2018-05-06T20:23:31.470Z,22.76
2018-05-06T20:25:59.593Z,22.72
2018-05-06T20:28:27.999Z,22.67
2018-05-06T20:30:56.486Z,22.67
2018-05-06T20:33:24.561Z,22.63
2018-05-06T20:35:52.666Z,22.61
2018-05-06T20:38:20.829Z,22.54
2018-05-06T20:40:48.868Z,22.57
2018-05-06T20:43:16.982Z,22.55
2018-05-06T20:45:45.093Z,22.53
2018-05-06T20:48:14.198Z,22.49
2018-05-06T20:50:42.283Z,22.49
2018-05-06T20:53:10.377Z,22.46
2018-05-06T20:55:38.467Z,22.42
2018-05-06T20:58:06.908Z,22.44
2018-05-06T21:00:35.646Z,22.41
2018-05-06T21:03:03.747Z,22.41
2018-05-06T21:05:32.603Z,22.37
2018-05-06T21:08:00.706Z,22.34
2018-05-06T21:13:03.708Z,22.29
2018-05-06T21:15:31.798Z,22.26
2018-05-06T21:30:59.894Z,21.99
2018-05-06T21:33:28.056Z,21.95
2018-05-06T21:35:56.153Z,21.98
2018-05-06T21:38:24.249Z,21.97
2018-05-06T21:40:52.354Z,21.93
2018-05-06T21:43:20.465Z,21.89
2018-05-06T21:45:49.287Z,21.84
2018-05-06T21:48:22.838Z,21.80
2018-05-06T21:50:56.587Z,21.77
2018-05-06T21:53:24.669Z,21.77
2018-05-06T21:55:52.760Z,21.72
2018-05-06T21:58:20.850Z,21.70
2018-05-06T22:00:48.960Z,21.67
2018-05-06T22:03:17.078Z,21.61
2018-05-06T22:05:45.213Z,21.56
2018-05-06T22:08:13.308Z,21.55
2018-05-06T22:10:41.388Z,21.51
2018-05-06T22:13:09.482Z,21.46
2018-05-06T22:15:37.574Z,21.44
2018-05-06T22:18:05.667Z,21.38
2018-05-06T22:20:33.796Z,21.39
2018-05-06T22:23:01.993Z,21.42
2018-05-06T22:25:30.416Z,21.41
2018-05-06T22:27:58.499Z,21.36
2018-05-06T22:30:27.085Z,21.32
2018-05-06T22:33:00.106Z,21.30
2018-05-06T22:35:28.488Z,21.27
2018-05-06T22:37:56.722Z,21.19
2018-05-06T22:40:24.852Z,21.19
2018-05-06T22:42:52.930Z,21.16
2018-05-06T22:45:21.010Z,21.14
2018-05-06T22:47:54.671Z,21.12
2018-05-06T22:50:23.402Z,21.06
2018-05-06T22:52:51.508Z,20.99
2018-05-06T22:55:19.608Z,21.00
2018-05-06T22:57:47.701Z,20.96
2018-05-06T23:00:16.588Z,20.95
2018-05-06T23:02:44.739Z,20.84
2018-05-06T23:05:18.452Z,20.83
2018-05-06T23:07:46.533Z,20.79
2018-05-06T23:10:14.646Z,20.78
2018-05-06T23:12:42.751Z,20.75
2018-05-06T23:15:10.848Z,20.71
2018-05-06T23:17:38.965Z,20.63
2018-05-06T23:20:07.391Z,20.58
2018-05-06T23:22:35.474Z,20.60
2018-05-06T23:25:03.558Z,20.55
2018-05-06T23:27:31.652Z,20.53
2018-05-06T23:30:00.058Z,20.50
2018-05-06T23:32:28.570Z,20.43
2018-05-06T23:34:56.710Z,20.43
2018-05-06T23:37:24.813Z,20.41
2018-05-06T23:39:52.922Z,20.36
2018-05-06T23:42:26.561Z,20.25
2018-05-06T23:45:00.802Z,20.21
2018-05-06T23:47:29.258Z,20.11
2018-05-06T23:49:57.322Z,20.04
2018-05-06T23:52:25.463Z,19.99
2018-05-06T23:54:53.562Z,19.98
2018-05-06T23:57:21.702Z,19.99
2018-05-06T23:59:49.795Z,19.96
